sensor_id;sensor_type;location;lat;lon;timestamp;pressure;altitude;pressure_sealevel;temperature;humidity
56604;BME280;42486;47.478;19.036;2022-12-11T00:02:27;98153.62;;;2.83;100.00
56604;BME280;42486;47.478;19.036;2022-12-11T00:05:29;98142.50;;;2.82;100.00
56604;BME280;42486;47.478;19.036;2022-12-11T00:08:30;98145.53;;;2.76;100.00
56604;BME280;42486;47.478;19.036;2022-12-11T00:11:32;98141.34;;;2.75;100.00
56604;BME280;42486;47.478;19.036;2022-12-11T00:14:34;98132.88;;;2.73;100.00
56604;BME280;42486;47.478;19.036;2022-12-11T00:17:36;98131.59;;;2.68;100.00
56604;BME280;42486;47.478;19.036;2022-12-11T00:20:38;98141.34;;;2.64;100.00
56604;BME280;42486;47.478;19.036;2022-12-11T00:23:40;98131.38;;;2.59;100.00
56604;BME280;42486;47.478;19.036;2022-12-11T00:26:42;98135.81;;;2.57;100.00
56604;BME280;42486;47.478;19.036;2022-12-11T00:29:44;98126.81;;;2.52;100.00
56604;BME280;42486;47.478;19.036;2022-12-11T00:32:46;98127.16;;;2.47;100.00
56604;BME280;42486;47.478;19.036;2022-12-11T00:35:49;98135.13;;;2.44;100.00
56604;BME280;42486;47.478;19.036;2022-12-11T00:38:51;98139.81;;;2.39;100.00
56604;BME280;42486;47.478;19.036;2022-12-11T00:41:54;98131.41;;;2.37;100.00
56604;BME280;42486;47.478;19.036;2022-12-11T00:44:55;98124.56;;;2.36;100.00
56604;BME280;42486;47.478;19.036;2022-12-11T00:47:57;98139.13;;;2.37;100.00
56604;BME280;42486;47.478;19.036;2022-12-11T00:50:59;98129.25;;;2.31;100.00
56604;BME280;42486;47.478;19.036;2022-12-11T00:54:01;98136.41;;;2.27;100.00
56604;BME280;42486;47.478;19.036;2022-12-11T00:57:04;98133.59;;;2.30;100.00
56604;BME280;42486;47.478;19.036;2022-12-11T01:00:08;98134.88;;;2.25;100.00
56604;BME280;42486;47.478;19.036;2022-12-11T01:03:11;98130.69;;;2.24;100.00
56604;BME280;42486;47.478;19.036;2022-12-11T01:06:14;98135.44;;;2.17;100.00
56604;BME280;42486;47.478;19.036;2022-12-11T01:09:18;98127.72;;;2.17;100.00
56604;BME280;42486;47.478;19.036;2022-12-11T01:12:38;98133.22;;;2.12;100.00
56604;BME280;42486;47.478;19.036;2022-12-11T01:15:41;98143.66;;;2.11;100.00
56604;BME280;42486;47.478;19.036;2022-12-11T01:18:43;98146.47;;;2.08;100.00
56604;BME280;42486;47.478;19.036;2022-12-11T01:21:45;98151.47;;;2.09;100.00
56604;BME280;42486;47.478;19.036;2022-12-11T01:24:47;98152.41;;;2.08;100.00
56604;BME280;42486;47.478;19.036;2022-12-11T01:27:49;98142.34;;;2.05;100.00
56604;BME280;42486;47.478;19.036;2022-12-11T01:30:53;98149.59;;;2.00;100.00
56604;BME280;42486;47.478;19.036;2022-12-11T01:33:55;98155.56;;;2.01;100.00
56604;BME280;42486;47.478;19.036;2022-12-11T01:36:57;98158.38;;;1.97;100.00
56604;BME280;42486;47.478;19.036;2022-12-11T01:39:59;98162.91;;;1.94;100.00
56604;BME280;42486;47.478;19.036;2022-12-11T01:43:01;98161.28;;;1.93;100.00
56604;BME280;42486;47.478;19.036;2022-12-11T01:46:03;98155.06;;;1.95;100.00
56604;BME280;42486;47.478;19.036;2022-12-11T01:49:10;98144.75;;;1.84;100.00
56604;BME280;42486;47.478;19.036;2022-12-11T01:52:14;98149.41;;;1.79;100.00
56604;BME280;42486;47.478;19.036;2022-12-11T01:55:16;98160.16;;;1.73;100.00
56604;BME280;42486;47.478;19.036;2022-12-11T01:58:19;98162.03;;;1.71;100.00
56604;BME280;42486;47.478;19.036;2022-12-11T02:01:39;98161.41;;;1.67;100.00
56604;BME280;42486;47.478;19.036;2022-12-11T02:04:43;98154.63;;;1.66;100.00
56604;BME280;42486;47.478;19.036;2022-12-11T02:07:50;98157.44;;;1.63;100.00
56604;BME280;42486;47.478;19.036;2022-12-11T02:11:09;98163.94;;;1.56;100.00
56604;BME280;42486;47.478;19.036;2022-12-11T02:14:17;98153.28;;;1.49;100.00
56604;BME280;42486;47.478;19.036;2022-12-11T02:17:22;98142.38;;;1.46;100.00
56604;BME280;42486;47.478;19.036;2022-12-11T02:20:28;98136.75;;;1.41;100.00
56604;BME280;42486;47.478;19.036;2022-12-11T02:26:49;98156.34;;;1.30;100.00
56604;BME280;42486;47.478;19.036;2022-12-11T02:29:59;98136.69;;;1.29;100.00
56604;BME280;42486;47.478;19.036;2022-12-11T02:33:02;98141.13;;;1.27;100.00
56604;BME280;42486;47.478;19.036;2022-12-11T02:36:04;98151.63;;;1.24;100.00
56604;BME280;42486;47.478;19.036;2022-12-11T02:39:08;98146.22;;;1.16;100.00
56604;BME280;42486;47.478;19.036;2022-12-11T02:42:13;98134.28;;;1.15;100.00
56604;BME280;42486;47.478;19.036;2022-12-11T02:45:17;98133.06;;;1.08;100.00
56604;BME280;42486;47.478;19.036;2022-12-11T02:48:19;98125.50;;;1.06;100.00
56604;BME280;42486;47.478;19.036;2022-12-11T02:51:24;98142.84;;;1.03;100.00
56604;BME280;42486;47.478;19.036;2022-12-11T02:54:29;98130.12;;;1.01;100.00
56604;BME280;42486;47.478;19.036;2022-12-11T02:57:41;98122.50;;;1.00;100.00
56604;BME280;42486;47.478;19.036;2022-12-11T03:00:45;98136.63;;;0.94;100.00
56604;BME280;42486;47.478;19.036;2022-12-11T03:03:47;98140.22;;;0.92;100.00
56604;BME280;42486;47.478;19.036;2022-12-11T03:06:50;98126.87;;;0.86;100.00
56604;BME280;42486;47.478;19.036;2022-12-11T03:09:54;98136.44;;;0.84;100.00
56604;BME280;42486;47.478;19.036;2022-12-11T03:12:56;98126.37;;;0.81;100.00
56604;BME280;42486;47.478;19.036;2022-12-11T03:16:14;98122.03;;;0.82;100.00
56604;BME280;42486;47.478;19.036;2022-12-11T03:22:29;98122.47;;;0.76;100.00
56604;BME280;42486;47.478;19.036;2022-12-11T03:25:54;98131.00;;;0.76;100.00
56604;BME280;42486;47.478;19.036;2022-12-11T03:28:58;98120.00;;;0.74;100.00
56604;BME280;42486;47.478;19.036;2022-12-11T03:32:08;98134.37;;;0.77;100.00
56604;BME280;42486;47.478;19.036;2022-12-11T03:35:33;98131.94;;;0.75;100.00
56604;BME280;42486;47.478;19.036;2022-12-11T03:38:41;98143.97;;;0.75;100.00
56604;BME280;42486;47.478;19.036;2022-12-11T03:41:44;98113.22;;;0.73;100.00
56604;BME280;42486;47.478;19.036;2022-12-11T03:44:48;98118.69;;;0.69;100.00
56604;BME280;42486;47.478;19.036;2022-12-11T03:47:51;98121.47;;;0.65;100.00
56604;BME280;42486;47.478;19.036;2022-12-11T03:50:54;98137.59;;;0.68;100.00
56604;BME280;42486;47.478;19.036;2022-12-11T03:53:56;98136.06;;;0.65;100.00
56604;BME280;42486;47.478;19.036;2022-12-11T03:56:59;98144.72;;;0.64;100.00
56604;BME280;42486;47.478;19.036;2022-12-11T04:00:13;98126.91;;;0.61;100.00
56604;BME280;42486;47.478;19.036;2022-12-11T04:03:15;98144.31;;;0.57;100.00
56604;BME280;42486;47.478;19.036;2022-12-11T04:06:18;98143.38;;;0.58;100.00
56604;BME280;42486;47.478;19.036;2022-12-11T04:09:20;98137.31;;;0.59;100.00
56604;BME280;42486;47.478;19.036;2022-12-11T04:12:23;98146.34;;;0.65;100.00
56604;BME280;42486;47.478;19.036;2022-12-11T04:15:25;98152.22;;;0.67;100.00
56604;BME280;42486;47.478;19.036;2022-12-11T04:18:27;98153.34;;;0.63;100.00
56604;BME280;42486;47.478;19.036;2022-12-11T04:21:47;98156.03;;;0.61;100.00
56604;BME280;42486;47.478;19.036;2022-12-11T04:25:07;98131.16;;;0.62;100.00
56604;BME280;42486;47.478;19.036;2022-12-11T04:28:10;98160.53;;;0.58;100.00
56604;BME280;42486;47.478;19.036;2022-12-11T04:31:13;98153.03;;;0.55;100.00
56604;BME280;42486;47.478;19.036;2022-12-11T04:34:16;98161.34;;;0.58;100.00
56604;BME280;42486;47.478;19.036;2022-12-11T04:37:18;98176.75;;;0.58;100.00
56604;BME280;42486;47.478;19.036;2022-12-11T04:40:20;98174.41;;;0.55;100.00
56604;BME280;42486;47.478;19.036;2022-12-11T04:43:22;98169.59;;;0.51;100.00
56604;BME280;42486;47.478;19.036;2022-12-11T04:46:23;98176.16;;;0.55;100.00
56604;BME280;42486;47.478;19.036;2022-12-11T04:49:25;98188.06;;;0.56;100.00
56604;BME280;42486;47.478;19.036;2022-12-11T04:52:27;98197.84;;;0.51;100.00
56604;BME280;42486;47.478;19.036;2022-12-11T04:55:29;98196.09;;;0.51;100.00
56604;BME280;42486;47.478;19.036;2022-12-11T04:58:31;98190.84;;;0.53;100.00
56604;BME280;42486;47.478;19.036;2022-12-11T05:01:33;98211.41;;;0.53;100.00
56604;BME280;42486;47.478;19.036;2022-12-11T05:04:35;98208.75;;;0.54;100.00
56604;BME280;42486;47.478;19.036;2022-12-11T05:07:37;98200.31;;;0.52;100.00
56604;BME280;42486;47.478;19.036;2022-12-11T05:10:39;98217.56;;;0.50;100.00
56604;BME280;42486;47.478;19.036;2022-12-11T05:13:47;98214.59;;;0.56;100.00
56604;BME280;42486;47.478;19.036;2022-12-11T05:16:49;98208.81;;;0.53;100.00
56604;BME280;42486;47.478;19.036;2022-12-11T05:19:51;98230.41;;;0.50;100.00
56604;BME280;42486;47.478;19.036;2022-12-11T05:22:53;98222.69;;;0.50;100.00
56604;BME280;42486;47.478;19.036;2022-12-11T05:25:56;98215.94;;;0.49;100.00
56604;BME280;42486;47.478;19.036;2022-12-11T05:28:58;98230.03;;;0.56;100.00
56604;BME280;42486;47.478;19.036;2022-12-11T05:32:00;98226.72;;;0.54;100.00
56604;BME280;42486;47.478;19.036;2022-12-11T05:35:02;98226.81;;;0.53;100.00
56604;BME280;42486;47.478;19.036;2022-12-11T05:38:04;98223.34;;;0.54;100.00
56604;BME280;42486;47.478;19.036;2022-12-11T05:41:06;98210.87;;;0.60;100.00
56604;BME280;42486;47.478;19.036;2022-12-11T05:44:10;98217.69;;;0.61;100.00
56604;BME280;42486;47.478;19.036;2022-12-11T05:47:13;98227.03;;;0.62;100.00
56604;BME280;42486;47.478;19.036;2022-12-11T05:50:15;98229.50;;;0.64;100.00
56604;BME280;42486;47.478;19.036;2022-12-11T05:53:16;98226.94;;;0.64;100.00
56604;BME280;42486;47.478;19.036;2022-12-11T05:56:19;98227.75;;;0.64;100.00
56604;BME280;42486;47.478;19.036;2022-12-11T05:59:21;98227.84;;;0.63;100.00
56604;BME280;42486;47.478;19.036;2022-12-11T06:02:24;98226.81;;;0.65;100.00
56604;BME280;42486;47.478;19.036;2022-12-11T06:05:26;98233.78;;;0.63;100.00
56604;BME280;42486;47.478;19.036;2022-12-11T06:08:28;98232.25;;;0.61;100.00
56604;BME280;42486;47.478;19.036;2022-12-11T06:11:30;98247.66;;;0.61;100.00
56604;BME280;42486;47.478;19.036;2022-12-11T06:14:33;98250.97;;;0.63;100.00
56604;BME280;42486;47.478;19.036;2022-12-11T06:17:35;98279.03;;;0.66;100.00
56604;BME280;42486;47.478;19.036;2022-12-11T06:20:37;98280.69;;;0.67;100.00
56604;BME280;42486;47.478;19.036;2022-12-11T06:23:40;98277.38;;;0.65;100.00
56604;BME280;42486;47.478;19.036;2022-12-11T06:26:42;98279.75;;;0.68;100.00
56604;BME280;42486;47.478;19.036;2022-12-11T06:29:45;98303.59;;;0.70;100.00
56604;BME280;42486;47.478;19.036;2022-12-11T06:32:47;98294.13;;;0.71;100.00
56604;BME280;42486;47.478;19.036;2022-12-11T06:35:49;98297.44;;;0.73;100.00
56604;BME280;42486;47.478;19.036;2022-12-11T06:38:51;98295.78;;;0.72;100.00
56604;BME280;42486;47.478;19.036;2022-12-11T06:41:53;98299.81;;;0.76;100.00
56604;BME280;42486;47.478;19.036;2022-12-11T06:45:00;98309.47;;;0.72;100.00
56604;BME280;42486;47.478;19.036;2022-12-11T06:48:03;98285.63;;;0.70;100.00
56604;BME280;42486;47.478;19.036;2022-12-11T06:51:07;98319.09;;;0.69;100.00
56604;BME280;42486;47.478;19.036;2022-12-11T06:54:10;98316.53;;;0.69;100.00
56604;BME280;42486;47.478;19.036;2022-12-11T06:57:12;98315.13;;;0.64;100.00
56604;BME280;42486;47.478;19.036;2022-12-11T07:00:15;98312.44;;;0.66;100.00
56604;BME280;42486;47.478;19.036;2022-12-11T07:03:17;98318.50;;;0.65;100.00
56604;BME280;42486;47.478;19.036;2022-12-11T07:06:20;98338.03;;;0.68;100.00
56604;BME280;42486;47.478;19.036;2022-12-11T07:09:22;98320.88;;;0.68;100.00
56604;BME280;42486;47.478;19.036;2022-12-11T07:12:26;98326.72;;;0.70;100.00
56604;BME280;42486;47.478;19.036;2022-12-11T07:15:28;98323.22;;;0.71;100.00
56604;BME280;42486;47.478;19.036;2022-12-11T07:18:30;98325.28;;;0.79;100.00
56604;BME280;42486;47.478;19.036;2022-12-11T07:21:33;98329.00;;;0.87;100.00
56604;BME280;42486;47.478;19.036;2022-12-11T07:24:41;98344.22;;;0.91;100.00
56604;BME280;42486;47.478;19.036;2022-12-11T07:27:43;98338.87;;;0.94;100.00
56604;BME280;42486;47.478;19.036;2022-12-11T07:30:46;98345.44;;;0.98;100.00
56604;BME280;42486;47.478;19.036;2022-12-11T07:34:00;98329.00;;;1.00;100.00
56604;BME280;42486;47.478;19.036;2022-12-11T07:37:11;98335.47;;;1.06;100.00
56604;BME280;42486;47.478;19.036;2022-12-11T07:40:14;98353.09;;;1.12;100.00
56604;BME280;42486;47.478;19.036;2022-12-11T07:43:34;98363.56;;;1.09;100.00
56604;BME280;42486;47.478;19.036;2022-12-11T07:46:41;98375.28;;;1.26;100.00
56604;BME280;42486;47.478;19.036;2022-12-11T07:49:43;98397.41;;;1.28;100.00
56604;BME280;42486;47.478;19.036;2022-12-11T07:52:51;98397.22;;;1.31;100.00
56604;BME280;42486;47.478;19.036;2022-12-11T07:55:53;98396.06;;;1.36;100.00
56604;BME280;42486;47.478;19.036;2022-12-11T07:58:59;98420.16;;;1.35;100.00
56604;BME280;42486;47.478;19.036;2022-12-11T08:02:02;98434.03;;;1.45;100.00
56604;BME280;42486;47.478;19.036;2022-12-11T08:05:09;98417.34;;;1.25;100.00
56604;BME280;42486;47.478;19.036;2022-12-11T08:08:12;98430.66;;;1.31;100.00
56604;BME280;42486;47.478;19.036;2022-12-11T08:11:14;98432.91;;;1.23;100.00
56604;BME280;42486;47.478;19.036;2022-12-11T08:14:17;98432.91;;;1.23;100.00
56604;BME280;42486;47.478;19.036;2022-12-11T08:17:26;98435.69;;;1.33;100.00
56604;BME280;42486;47.478;19.036;2022-12-11T08:38:56;98494.97;;;1.31;100.00
56604;BME280;42486;47.478;19.036;2022-12-11T08:42:13;98483.66;;;1.34;100.00
56604;BME280;42486;47.478;19.036;2022-12-11T08:45:20;98508.44;;;1.35;100.00
56604;BME280;42486;47.478;19.036;2022-12-11T08:48:25;98514.59;;;1.32;100.00
56604;BME280;42486;47.478;19.036;2022-12-11T08:51:47;98512.03;;;1.32;100.00
56604;BME280;42486;47.478;19.036;2022-12-11T08:54:57;98500.50;;;1.25;100.00
56604;BME280;42486;47.478;19.036;2022-12-11T08:58:14;98519.94;;;1.29;100.00
56604;BME280;42486;47.478;19.036;2022-12-11T09:01:34;98525.22;;;1.28;100.00
56604;BME280;42486;47.478;19.036;2022-12-11T09:04:52;98540.53;;;1.29;100.00
56604;BME280;42486;47.478;19.036;2022-12-11T09:07:57;98517.50;;;1.28;100.00
56604;BME280;42486;47.478;19.036;2022-12-11T09:11:12;98530.75;;;1.35;100.00
56604;BME280;42486;47.478;19.036;2022-12-11T09:14:28;98527.56;;;1.31;100.00
56604;BME280;42486;47.478;19.036;2022-12-11T09:17:34;98528.31;;;1.33;100.00
56604;BME280;42486;47.478;19.036;2022-12-11T09:24:16;98529.31;;;1.43;100.00
56604;BME280;42486;47.478;19.036;2022-12-11T09:27:19;98524.38;;;1.40;100.00
56604;BME280;42486;47.478;19.036;2022-12-11T09:30:33;98522.09;;;1.36;100.00
56604;BME280;42486;47.478;19.036;2022-12-11T09:33:46;98534.16;;;1.35;100.00
56604;BME280;42486;47.478;19.036;2022-12-11T09:36:54;98532.59;;;1.32;100.00
56604;BME280;42486;47.478;19.036;2022-12-11T09:39:57;98537.53;;;1.36;100.00
56604;BME280;42486;47.478;19.036;2022-12-11T09:43:18;98538.28;;;1.38;100.00
56604;BME280;42486;47.478;19.036;2022-12-11T09:46:23;98532.72;;;1.31;100.00
56604;BME280;42486;47.478;19.036;2022-12-11T09:49:42;98537.66;;;1.34;100.00
56604;BME280;42486;47.478;19.036;2022-12-11T09:56:24;98522.97;;;1.36;100.00
56604;BME280;42486;47.478;19.036;2022-12-11T09:59:29;98523.59;;;1.52;100.00
56604;BME280;42486;47.478;19.036;2022-12-11T10:06:20;98507.41;;;1.38;100.00
56604;BME280;42486;47.478;19.036;2022-12-11T10:13:13;98493.00;;;1.35;100.00
56604;BME280;42486;47.478;19.036;2022-12-11T10:19:44;98501.34;;;1.39;100.00
56604;BME280;42486;47.478;19.036;2022-12-11T10:22:49;98522.87;;;1.50;100.00
56604;BME280;42486;47.478;19.036;2022-12-11T10:25:55;98524.81;;;1.47;100.00
56604;BME280;42486;47.478;19.036;2022-12-11T10:29:04;98528.22;;;1.47;100.00
56604;BME280;42486;47.478;19.036;2022-12-11T10:32:14;98548.09;;;1.58;100.00
56604;BME280;42486;47.478;19.036;2022-12-11T10:35:56;98552.63;;;1.54;100.00
56604;BME280;42486;47.478;19.036;2022-12-11T10:38:59;98528.63;;;1.54;100.00
56604;BME280;42486;47.478;19.036;2022-12-11T10:42:05;98536.97;;;1.58;100.00
56604;BME280;42486;47.478;19.036;2022-12-11T10:45:15;98540.66;;;1.53;100.00
56604;BME280;42486;47.478;19.036;2022-12-11T10:48:19;98549.00;;;1.44;100.00
56604;BME280;42486;47.478;19.036;2022-12-11T10:51:50;98559.50;;;1.41;100.00
56604;BME280;42486;47.478;19.036;2022-12-11T10:59:00;98566.50;;;1.39;100.00
56604;BME280;42486;47.478;19.036;2022-12-11T11:02:30;98568.84;;;1.42;100.00
56604;BME280;42486;47.478;19.036;2022-12-11T11:05:47;98555.47;;;1.37;100.00
56604;BME280;42486;47.478;19.036;2022-12-11T11:08:55;98560.63;;;1.37;100.00
56604;BME280;42486;47.478;19.036;2022-12-11T11:12:24;98555.38;;;1.39;100.00
56604;BME280;42486;47.478;19.036;2022-12-11T11:15:30;98542.31;;;1.42;100.00
56604;BME280;42486;47.478;19.036;2022-12-11T11:18:35;98562.16;;;1.40;100.00
56604;BME280;42486;47.478;19.036;2022-12-11T11:21:59;98544.59;;;1.46;100.00
56604;BME280;42486;47.478;19.036;2022-12-11T11:25:25;98537.97;;;1.42;100.00
56604;BME280;42486;47.478;19.036;2022-12-11T11:28:46;98530.28;;;1.42;100.00
56604;BME280;42486;47.478;19.036;2022-12-11T11:31:50;98535.81;;;1.49;100.00
56604;BME280;42486;47.478;19.036;2022-12-11T11:35:33;98539.03;;;1.52;100.00
56604;BME280;42486;47.478;19.036;2022-12-11T11:45:21;98571.25;;;1.58;100.00
56604;BME280;42486;47.478;19.036;2022-12-11T11:55:31;98567.03;;;1.57;100.00
56604;BME280;42486;47.478;19.036;2022-12-11T12:01:59;98575.59;;;1.58;100.00
56604;BME280;42486;47.478;19.036;2022-12-11T12:05:22;98584.53;;;1.52;100.00
56604;BME280;42486;47.478;19.036;2022-12-11T12:08:45;98590.22;;;1.57;100.00
56604;BME280;42486;47.478;19.036;2022-12-11T12:16:00;98604.50;;;1.61;100.00
56604;BME280;42486;47.478;19.036;2022-12-11T12:36:20;98617.88;;;1.53;100.00
56604;BME280;42486;47.478;19.036;2022-12-11T12:39:53;98610.88;;;1.56;100.00
56604;BME280;42486;47.478;19.036;2022-12-11T12:49:56;98627.16;;;1.56;100.00
56604;BME280;42486;47.478;19.036;2022-12-11T12:53:08;98648.47;;;1.58;100.00
56604;BME280;42486;47.478;19.036;2022-12-11T12:56:38;98632.72;;;1.63;100.00
56604;BME280;42486;47.478;19.036;2022-12-11T13:04:25;98666.28;;;1.61;100.00
56604;BME280;42486;47.478;19.036;2022-12-11T13:08:01;98684.50;;;1.58;100.00
56604;BME280;42486;47.478;19.036;2022-12-11T13:11:11;98688.81;;;1.58;100.00
56604;BME280;42486;47.478;19.036;2022-12-11T13:14:31;98696.53;;;1.58;100.00
56604;BME280;42486;47.478;19.036;2022-12-11T13:17:37;98697.06;;;1.63;100.00
56604;BME280;42486;47.478;19.036;2022-12-11T13:20:59;98698.53;;;1.67;100.00
56604;BME280;42486;47.478;19.036;2022-12-11T13:30:57;98720.25;;;1.63;100.00
56604;BME280;42486;47.478;19.036;2022-12-11T13:34:15;98714.69;;;1.69;100.00
56604;BME280;42486;47.478;19.036;2022-12-11T13:40:38;98711.25;;;1.56;100.00
56604;BME280;42486;47.478;19.036;2022-12-11T13:43:47;98719.91;;;1.54;100.00
56604;BME280;42486;47.478;19.036;2022-12-11T13:47:14;98721.75;;;1.52;100.00
56604;BME280;42486;47.478;19.036;2022-12-11T13:50:55;98722.47;;;1.54;100.00
56604;BME280;42486;47.478;19.036;2022-12-11T13:54:14;98739.47;;;1.57;100.00
56604;BME280;42486;47.478;19.036;2022-12-11T13:57:25;98746.13;;;1.47;100.00
56604;BME280;42486;47.478;19.036;2022-12-11T14:00:32;98751.06;;;1.50;100.00
56604;BME280;42486;47.478;19.036;2022-12-11T14:03:37;98749.41;;;1.49;100.00
56604;BME280;42486;47.478;19.036;2022-12-11T14:06:41;98754.03;;;1.44;100.00
56604;BME280;42486;47.478;19.036;2022-12-11T14:09:46;98760.28;;;1.40;100.00
56604;BME280;42486;47.478;19.036;2022-12-11T14:13:03;98762.09;;;1.38;100.00
56604;BME280;42486;47.478;19.036;2022-12-11T14:16:13;98771.56;;;1.37;100.00
56604;BME280;42486;47.478;19.036;2022-12-11T14:19:44;98770.56;;;1.40;100.00
56604;BME280;42486;47.478;19.036;2022-12-11T14:23:18;98770.84;;;1.35;100.00
56604;BME280;42486;47.478;19.036;2022-12-11T14:26:35;98791.06;;;1.27;100.00
56604;BME280;42486;47.478;19.036;2022-12-11T14:30:07;98806.75;;;1.22;100.00
56604;BME280;42486;47.478;19.036;2022-12-11T14:33:34;98804.56;;;1.16;100.00
56604;BME280;42486;47.478;19.036;2022-12-11T14:36:41;98817.91;;;1.23;100.00
56604;BME280;42486;47.478;19.036;2022-12-11T14:43:20;98821.13;;;1.12;100.00
56604;BME280;42486;47.478;19.036;2022-12-11T14:49:55;98814.03;;;1.01;100.00
56604;BME280;42486;47.478;19.036;2022-12-11T14:53:13;98822.03;;;0.97;100.00
56604;BME280;42486;47.478;19.036;2022-12-11T14:56:26;98829.44;;;0.87;100.00
56604;BME280;42486;47.478;19.036;2022-12-11T14:59:36;98835.75;;;0.81;100.00
56604;BME280;42486;47.478;19.036;2022-12-11T15:06:21;98827.47;;;0.76;100.00
56604;BME280;42486;47.478;19.036;2022-12-11T15:12:42;98853.19;;;0.76;100.00
56604;BME280;42486;47.478;19.036;2022-12-11T15:15:56;98850.06;;;0.71;100.00
56604;BME280;42486;47.478;19.036;2022-12-11T15:19:01;98855.19;;;0.71;100.00
56604;BME280;42486;47.478;19.036;2022-12-11T15:32:41;98862.84;;;0.73;100.00
56604;BME280;42486;47.478;19.036;2022-12-11T15:36:18;98865.41;;;0.73;100.00
56604;BME280;42486;47.478;19.036;2022-12-11T15:39:28;98864.66;;;0.71;100.00
56604;BME280;42486;47.478;19.036;2022-12-11T15:42:43;98870.78;;;0.68;100.00
56604;BME280;42486;47.478;19.036;2022-12-11T15:46:03;98863.34;;;0.63;100.00
56604;BME280;42486;47.478;19.036;2022-12-11T15:49:11;98866.75;;;0.64;100.00
56604;BME280;42486;47.478;19.036;2022-12-11T15:52:19;98863.50;;;0.60;100.00
56604;BME280;42486;47.478;19.036;2022-12-11T15:56:02;98861.62;;;0.64;100.00
56604;BME280;42486;47.478;19.036;2022-12-11T15:59:16;98862.94;;;0.55;100.00
56604;BME280;42486;47.478;19.036;2022-12-11T16:02:19;98868.84;;;0.57;100.00
56604;BME280;42486;47.478;19.036;2022-12-11T16:05:25;98868.09;;;0.55;100.00
56604;BME280;42486;47.478;19.036;2022-12-11T16:08:42;98877.28;;;0.59;100.00
56604;BME280;42486;47.478;19.036;2022-12-11T16:12:10;98869.84;;;0.55;100.00
56604;BME280;42486;47.478;19.036;2022-12-11T16:15:13;98890.13;;;0.59;100.00
56604;BME280;42486;47.478;19.036;2022-12-11T16:18:23;98884.59;;;0.51;100.00
56604;BME280;42486;47.478;19.036;2022-12-11T16:21:30;98884.69;;;0.50;100.00
56604;BME280;42486;47.478;19.036;2022-12-11T16:25:22;98889.06;;;0.48;100.00
56604;BME280;42486;47.478;19.036;2022-12-11T16:28:25;98891.97;;;0.57;100.00
56604;BME280;42486;47.478;19.036;2022-12-11T16:31:31;98879.38;;;0.53;100.00
56604;BME280;42486;47.478;19.036;2022-12-11T16:34:34;98897.78;;;0.45;100.00
56604;BME280;42486;47.478;19.036;2022-12-11T16:37:38;98885.03;;;0.43;100.00
56604;BME280;42486;47.478;19.036;2022-12-11T16:40:41;98904.94;;;0.40;100.00
56604;BME280;42486;47.478;19.036;2022-12-11T16:43:48;98895.56;;;0.39;100.00
56604;BME280;42486;47.478;19.036;2022-12-11T16:47:14;98905.06;;;0.37;99.74
56604;BME280;42486;47.478;19.036;2022-12-11T16:50:18;98894.81;;;0.37;100.00
56604;BME280;42486;47.478;19.036;2022-12-11T16:53:34;98911.06;;;0.37;100.00
56604;BME280;42486;47.478;19.036;2022-12-11T16:56:39;98900.12;;;0.34;100.00
56604;BME280;42486;47.478;19.036;2022-12-11T16:59:49;98900.94;;;0.34;100.00
56604;BME280;42486;47.478;19.036;2022-12-11T17:02:54;98892.41;;;0.34;100.00
56604;BME280;42486;47.478;19.036;2022-12-11T17:05:57;98900.22;;;0.32;100.00
56604;BME280;42486;47.478;19.036;2022-12-11T17:09:00;98904.09;;;0.24;100.00
56604;BME280;42486;47.478;19.036;2022-12-11T17:12:05;98903.09;;;0.26;100.00
56604;BME280;42486;47.478;19.036;2022-12-11T17:15:15;98897.38;;;0.21;100.00
56604;BME280;42486;47.478;19.036;2022-12-11T17:18:26;98899.72;;;0.26;100.00
56604;BME280;42486;47.478;19.036;2022-12-11T17:21:30;98901.53;;;0.24;99.85
56604;BME280;42486;47.478;19.036;2022-12-11T17:24:36;98899.81;;;0.24;100.00
56604;BME280;42486;47.478;19.036;2022-12-11T17:27:42;98890.53;;;0.21;99.70
56604;BME280;42486;47.478;19.036;2022-12-11T17:30:50;98906.84;;;0.20;99.90
56604;BME280;42486;47.478;19.036;2022-12-11T17:33:54;98906.75;;;0.22;100.00
56604;BME280;42486;47.478;19.036;2022-12-11T17:37:02;98910.97;;;0.23;100.00
56604;BME280;42486;47.478;19.036;2022-12-11T17:40:10;98911.72;;;0.25;99.14
56604;BME280;42486;47.478;19.036;2022-12-11T17:43:23;98912.06;;;0.19;98.99
56604;BME280;42486;47.478;19.036;2022-12-11T17:46:30;98906.75;;;0.22;99.19
56604;BME280;42486;47.478;19.036;2022-12-11T17:49:42;98906.53;;;0.27;100.00
56604;BME280;42486;47.478;19.036;2022-12-11T17:52:47;98900.62;;;0.25;99.80
56604;BME280;42486;47.478;19.036;2022-12-11T17:55:57;98903.09;;;0.26;99.55
56604;BME280;42486;47.478;19.036;2022-12-11T17:59:03;98916.03;;;0.25;100.00
56604;BME280;42486;47.478;19.036;2022-12-11T18:02:08;98904.50;;;0.16;100.00
56604;BME280;42486;47.478;19.036;2022-12-11T18:05:11;98914.88;;;0.14;100.00
56604;BME280;42486;47.478;19.036;2022-12-11T18:08:16;98919.09;;;0.15;100.00
56604;BME280;42486;47.478;19.036;2022-12-11T18:11:19;98916.53;;;0.15;100.00
56604;BME280;42486;47.478;19.036;2022-12-11T18:14:28;98919.19;;;0.14;100.00
56604;BME280;42486;47.478;19.036;2022-12-11T18:17:34;98912.38;;;0.13;100.00
56604;BME280;42486;47.478;19.036;2022-12-11T18:20:46;98912.38;;;0.13;100.00
56604;BME280;42486;47.478;19.036;2022-12-11T18:24:23;98926.91;;;0.14;100.00
56604;BME280;42486;47.478;19.036;2022-12-11T18:27:35;98932.91;;;0.13;100.00
56604;BME280;42486;47.478;19.036;2022-12-11T18:30:37;98930.19;;;0.16;100.00
56604;BME280;42486;47.478;19.036;2022-12-11T18:33:45;98936.34;;;0.13;100.00
56604;BME280;42486;47.478;19.036;2022-12-11T18:36:52;98929.69;;;0.09;100.00